Time;durP1;ratioP1;P1;durP2;ratioP2;P2;SDS_P1;SDS_P2;PMS_P1;PMS_P2;Temp;Humidity;BMP_temperature;BMP_pressure;BME280_temperature;BME280_humidity;BME280_pressure;Samples;Min_cycle;Max_cycle;Signal;HPM_P1;HPM_P2
2022/06/17 00:04:33;;;;;;;6.07;3.30;;;20.00;75.70;;;;;;10509259;28;20028;-63
2022/06/17 00:09:36;;;;;;;5.97;3.10;;;20.00;75.80;;;;;;10512059;28;20048;-65
2022/06/17 00:19:56;;;;;;;4.25;3.33;;;19.90;75.80;;;;;;10506027;28;20032;-65
2022/06/17 00:24:56;;;;;;;5.68;3.47;;;19.90;75.90;;;;;;10504050;28;20481;-59
2022/06/17 00:29:57;;;;;;;3.55;3.22;;;19.90;75.90;;;;;;10504114;28;20077;-57
2022/06/17 00:34:58;;;;;;;4.82;3.10;;;19.90;76.00;;;;;;10502153;28;20036;-57
2022/06/17 00:39:59;;;;;;;4.75;3.10;;;19.80;76.00;;;;;;10503175;28;20084;-65
2022/06/17 00:45:10;;;;;;;5.07;3.70;;;19.80;76.00;;;;;;10504733;28;20056;-62
2022/06/17 00:50:30;;;;;;;4.40;3.50;;;19.80;76.10;;;;;;10506195;28;20565;-57
2022/06/17 00:55:40;;;;;;;4.28;3.38;;;19.70;76.10;;;;;;10504005;28;20071;-65
2022/06/17 01:00:42;;;;;;;3.85;2.92;;;19.70;76.10;;;;;;10504650;28;20020;-57
2022/06/17 01:05:51;;;;;;;4.78;3.42;;;19.70;76.10;;;;;;10507275;28;20119;-64
2022/06/17 01:10:51;;;;;;;5.68;3.45;;;19.70;76.20;;;;;;10503241;28;20017;-57
2022/06/17 01:15:52;;;;;;;3.58;3.15;;;19.60;76.20;;;;;;10504616;28;20041;-64
2022/06/17 01:20:55;;;;;;;4.22;3.50;;;19.60;76.20;;;;;;10502558;28;20381;-63
2022/06/17 01:25:56;;;;;;;3.90;3.50;;;19.60;76.20;;;;;;10507385;28;20028;-66
2022/06/17 01:30:59;;;;;;;4.53;3.55;;;19.50;76.20;;;;;;10502536;28;20024;-63
2022/06/17 01:36:21;;;;;;;4.35;3.50;;;19.50;76.30;;;;;;10503790;28;20044;-62
2022/06/17 01:41:28;;;;;;;4.90;3.47;;;19.50;76.40;;;;;;10507977;28;20159;-57
2022/06/17 01:46:36;;;;;;;5.17;3.47;;;19.50;76.30;;;;;;10507272;28;20052;-63
2022/06/17 01:51:42;;;;;;;4.60;3.43;;;19.40;76.30;;;;;;10502159;28;20023;-64
2022/06/17 01:56:44;;;;;;;4.45;3.28;;;19.40;76.30;;;;;;10512682;28;20877;-63
2022/06/17 02:01:50;;;;;;;4.13;3.72;;;19.40;76.30;;;;;;10512173;28;20036;-62
2022/06/17 02:07:08;;;;;;;6.13;3.63;;;19.40;76.40;;;;;;10514213;28;20016;-59
2022/06/17 02:12:09;;;;;;;4.15;3.50;;;19.40;76.50;;;;;;10510974;28;20064;-60
2022/06/17 02:17:10;;;;;;;3.88;3.22;;;19.30;76.40;;;;;;10509087;28;20509;-63
2022/06/17 02:22:25;;;;;;;5.20;3.38;;;19.30;76.50;;;;;;10509917;28;20021;-57
2022/06/17 02:27:27;;;;;;;5.35;3.80;;;19.30;76.50;;;;;;10508359;28;20048;-62
2022/06/17 02:32:31;;;;;;;4.85;3.65;;;19.20;76.50;;;;;;10511398;28;20028;-60
2022/06/17 02:37:32;;;;;;;7.05;4.00;;;19.20;76.50;;;;;;10508826;28;20035;-59
2022/06/17 02:42:37;;;;;;;4.57;3.70;;;19.20;76.50;;;;;;10511611;28;20031;-57
2022/06/17 02:47:39;;;;;;;5.22;3.50;;;19.20;76.60;;;;;;10509250;28;20040;-57
2022/06/17 02:52:40;;;;;;;4.47;3.67;;;19.20;76.60;;;;;;10511599;28;20389;-65
2022/06/17 02:57:45;;;;;;;5.55;3.65;;;19.20;76.60;;;;;;10509181;28;20040;-65
2022/06/17 03:02:56;;;;;;;5.15;3.38;;;19.10;76.60;;;;;;10510772;28;20019;-60
2022/06/17 03:07:59;;;;;;;7.00;3.97;;;19.10;76.60;;;;;;10507723;28;20124;-65
2022/06/17 03:13:08;;;;;;;4.68;3.38;;;19.10;76.60;;;;;;10512383;28;20055;-57
2022/06/17 03:18:10;;;;;;;4.03;3.50;;;19.10;76.60;;;;;;10504217;28;20039;-62
2022/06/17 03:23:17;;;;;;;5.68;3.92;;;19.10;76.60;;;;;;10501174;28;20101;-60
2022/06/17 03:28:25;;;;;;;4.55;3.80;;;19.00;76.60;;;;;;10504854;28;20030;-60
2022/06/17 03:33:37;;;;;;;5.33;4.03;;;19.00;76.60;;;;;;10507458;28;20024;-61
2022/06/17 03:38:46;;;;;;;4.55;3.80;;;19.00;76.70;;;;;;10502779;28;20110;-57
2022/06/17 03:44:06;;;;;;;5.15;3.80;;;19.00;76.90;;;;;;10501170;28;20400;-63
2022/06/17 03:49:17;;;;;;;4.07;3.65;;;19.00;76.70;;;;;;10506925;28;20028;-60
2022/06/17 03:54:18;;;;;;;5.30;4.22;;;19.00;76.70;;;;;;10507620;28;20111;-62
2022/06/17 03:59:28;;;;;;;5.50;3.97;;;18.90;76.60;;;;;;10502669;28;20028;-62
2022/06/17 04:04:38;;;;;;;5.30;3.97;;;18.90;76.60;;;;;;10507354;28;20496;-57
2022/06/17 04:09:42;;;;;;;5.40;4.80;;;18.90;76.60;;;;;;10507911;28;20347;-65
2022/06/17 04:14:52;;;;;;;6.53;3.97;;;18.90;76.60;;;;;;10503712;28;20035;-58
2022/06/17 04:20:11;;;;;;;5.13;3.95;;;18.90;77.20;;;;;;10515448;28;20388;-60
2022/06/17 04:25:25;;;;;;;6.97;4.18;;;18.90;76.70;;;;;;10507843;28;20037;-66
2022/06/17 04:30:30;;;;;;;5.22;4.35;;;18.90;76.70;;;;;;10510502;28;20429;-64
2022/06/17 04:35:33;;;;;;;5.80;4.28;;;18.90;76.70;;;;;;10508032;28;20055;-58
2022/06/17 04:40:40;;;;;;;5.65;3.92;;;18.90;76.70;;;;;;10503108;28;20381;-65
2022/06/17 04:45:54;;;;;;;6.68;5.43;;;18.90;76.70;;;;;;10506376;28;20024;-58
2022/06/17 04:50:55;;;;;;;7.00;4.75;;;18.80;77.30;;;;;;10502217;28;20032;-62
2022/06/17 04:55:56;;;;;;;6.80;4.68;;;18.80;77.20;;;;;;10502920;28;20039;-59
2022/06/17 05:00:57;;;;;;;6.50;4.90;;;18.80;77.20;;;;;;10504243;28;20675;-64
2022/06/17 05:05:58;;;;;;;5.47;4.35;;;18.80;77.30;;;;;;10508038;28;20110;-61
2022/06/17 05:11:06;;;;;;;6.63;4.55;;;18.80;77.30;;;;;;10511117;28;20419;-60
2022/06/17 05:16:12;;;;;;;6.35;4.60;;;18.80;77.30;;;;;;10504353;28;20480;-60
2022/06/17 05:21:18;;;;;;;5.15;4.35;;;18.80;77.30;;;;;;10508064;28;20052;-64
2022/06/17 05:26:19;;;;;;;5.32;4.25;;;18.90;77.30;;;;;;10503154;28;20042;-58
2022/06/17 05:31:24;;;;;;;6.88;4.07;;;18.80;77.20;;;;;;10511182;28;20303;-59
2022/06/17 05:36:25;;;;;;;4.55;3.80;;;18.90;77.30;;;;;;10513322;28;20039;-61
2022/06/17 05:41:25;;;;;;;6.53;4.07;;;18.90;77.20;;;;;;10510342;28;20024;-60
2022/06/17 05:46:27;;;;;;;5.63;4.13;;;18.90;77.20;;;;;;10508607;28;20043;-61
2022/06/17 05:51:27;;;;;;;5.30;3.90;;;18.90;77.20;;;;;;10510276;28;20089;-61
2022/06/17 05:56:28;;;;;;;7.00;4.22;;;18.60;77.00;;;;;;10510314;28;20442;-58
2022/06/17 06:01:29;;;;;;;5.55;3.88;;;18.90;77.10;;;;;;10505343;28;20044;-61
2022/06/17 06:06:30;;;;;;;4.82;4.25;;;19.00;77.10;;;;;;10507910;28;20045;-61
2022/06/17 06:11:31;;;;;;;7.30;4.45;;;19.00;77.00;;;;;;10514759;28;20043;-59
2022/06/17 06:16:31;;;;;;;4.18;3.67;;;19.00;76.90;;;;;;10523373;28;20583;-63
2022/06/17 06:21:32;;;;;;;5.28;4.05;;;19.00;76.90;;;;;;10521113;28;20090;-61
2022/06/17 06:26:33;;;;;;;4.35;3.65;;;19.00;76.80;;;;;;10519969;28;20032;-63
2022/06/17 06:31:36;;;;;;;5.93;3.92;;;19.10;76.90;;;;;;10509409;28;20607;-55
2022/06/17 06:36:37;;;;;;;4.72;4.00;;;19.10;76.80;;;;;;10513403;28;20046;-60
2022/06/17 06:41:38;;;;;;;4.50;3.95;;;19.10;76.80;;;;;;10509511;28;20484;-57
2022/06/17 06:46:39;;;;;;;5.25;3.92;;;19.10;76.60;;;;;;10507916;28;20043;-58
2022/06/17 06:51:39;;;;;;;4.13;3.70;;;19.20;76.60;;;;;;10501646;28;20032;-55
2022/06/17 06:56:40;;;;;;;5.40;3.80;;;19.20;76.50;;;;;;10511957;28;20047;-57
2022/06/17 07:01:41;;;;;;;5.03;4.53;;;19.30;76.60;;;;;;10511248;28;20062;-56
2022/06/17 07:06:42;;;;;;;6.03;3.85;;;19.30;76.60;;;;;;10506306;28;20262;-57
2022/06/17 07:11:43;;;;;;;5.82;3.80;;;19.30;76.50;;;;;;10502165;28;20078;-66
2022/06/17 07:16:43;;;;;;;5.30;3.72;;;19.30;76.50;;;;;;10505926;28;20051;-58
2022/06/17 07:21:44;;;;;;;5.70;3.95;;;19.40;76.50;;;;;;10515405;28;20078;-63
2022/06/17 07:26:45;;;;;;;5.55;3.60;;;19.40;76.40;;;;;;10506164;28;20112;-62
2022/06/17 07:31:46;;;;;;;5.63;3.80;;;19.50;76.40;;;;;;10500892;28;20059;-57
2022/06/17 07:42:06;;;;;;;6.22;3.80;;;19.60;76.20;;;;;;10501837;28;20109;-57
2022/06/17 07:47:15;;;;;;;4.32;3.53;;;19.60;76.10;;;;;;10509349;28;20097;-59
2022/06/17 07:52:16;;;;;;;3.90;3.33;;;19.70;76.10;;;;;;10501463;28;20157;-61
2022/06/17 07:57:17;;;;;;;3.63;3.28;;;19.70;76.00;;;;;;10504588;28;20168;-63
2022/06/17 08:02:18;;;;;;;7.63;3.58;;;19.70;75.90;;;;;;10501813;28;20028;-60
2022/06/17 08:07:19;;;;;;;5.38;3.60;;;19.80;76.00;;;;;;10499246;28;20040;-57
2022/06/17 08:12:20;;;;;;;3.65;2.85;;;19.80;75.90;;;;;;10505957;28;20047;-63
2022/06/17 08:17:21;;;;;;;3.90;3.17;;;19.80;75.90;;;;;;10504380;28;20035;-62
2022/06/17 08:22:25;;;;;;;6.25;3.35;;;19.90;75.90;;;;;;10501854;28;20020;-61
2022/06/17 08:27:25;;;;;;;4.10;3.17;;;19.90;75.80;;;;;;10510462;28;20028;-64
2022/06/17 08:37:48;;;;;;;6.00;3.30;;;20.00;75.70;;;;;;10506978;28;20044;-61
2022/06/17 08:43:10;;;;;;;3.90;3.10;;;20.10;75.60;;;;;;10513777;28;20020;-58
2022/06/17 08:48:31;;;;;;;4.90;3.30;;;20.10;75.60;;;;;;10511844;28;20107;-57
2022/06/17 08:54:04;;;;;;;4.00;2.92;;;20.20;75.60;;;;;;10505682;28;20032;-56
2022/06/17 08:59:36;;;;;;;6.25;4.00;;;20.20;75.50;;;;;;10506650;28;20044;-60
2022/06/17 09:04:54;;;;;;;6.10;4.03;;;20.50;76.10;;;;;;10508350;28;20094;-62
2022/06/17 09:09:58;;;;;;;9.18;4.40;;;21.00;76.20;;;;;;10504745;28;20041;-59
2022/06/17 09:15:41;;;;;;;6.50;4.40;;;21.30;74.60;;;;;;10506481;28;20534;-61
2022/06/17 09:20:44;;;;;;;8.27;4.00;;;21.50;74.90;;;;;;10483098;28;20523;-63
2022/06/17 09:25:48;;;;;;;5.50;3.92;;;21.70;73.80;;;;;;10506756;28;20016;-59
2022/06/17 09:30:56;;;;;;;7.78;4.57;;;21.90;73.60;;;;;;10503090;28;20107;-59
2022/06/17 09:36:14;;;;;;;7.50;3.97;;;22.00;73.60;;;;;;10506960;28;20393;-58
2022/06/17 09:41:18;;;;;;;;;;;22.10;73.60;;;;;;10502885;28;20016;-59
2022/06/17 09:46:21;;;;;;;6.68;3.83;;;22.20;72.70;;;;;;10504010;28;20330;-60
2022/06/17 09:51:38;;;;;;;8.35;3.63;;;22.30;73.20;;;;;;10502340;28;20020;-63
2022/06/17 09:56:49;;;;;;;5.50;3.38;;;22.70;72.70;;;;;;10503363;28;20121;-59
2022/06/17 10:01:52;;;;;;;6.13;3.50;;;22.90;72.10;;;;;;10502321;28;20028;-59
2022/06/17 10:07:20;;;;;;;5.80;3.25;;;22.90;71.90;;;;;;10500201;28;20531;-59
2022/06/17 10:12:39;;;;;;;;;;;23.00;71.70;;;;;;10501568;28;20044;-59
2022/06/17 10:23:11;;;;;;;5.68;4.20;;;23.00;71.80;;;;;;10509000;28;20499;-59
2022/06/17 10:28:20;;;;;;;7.47;4.47;;;23.00;71.80;;;;;;10507626;28;20035;-59
2022/06/17 10:33:22;;;;;;;8.43;4.45;;;23.20;71.80;;;;;;10507468;28;20028;-64
2022/06/17 10:38:31;;;;;;;7.90;4.45;;;23.30;72.00;;;;;;10507172;28;20024;-63
2022/06/17 10:43:38;;;;;;;6.82;4.40;;;23.40;71.80;;;;;;10512231;28;20029;-59
2022/06/17 10:48:48;;;;;;;8.73;3.95;;;23.40;72.40;;;;;;10509640;28;20031;-63
2022/06/17 10:54:03;;;;;;;6.35;3.63;;;23.50;71.20;;;;;;10517835;28;20148;-65
2022/06/17 10:59:10;;;;;;;5.90;3.90;;;23.70;71.20;;;;;;10519852;28;20107;-66
2022/06/17 11:04:12;;;;;;;6.83;3.60;;;23.80;70.70;;;;;;10519832;28;20938;-63
2022/06/17 11:09:34;;;;;;;5.70;3.58;;;23.90;70.70;;;;;;10519484;28;20756;-60
2022/06/17 11:14:54;;;;;;;6.70;3.78;;;24.00;70.40;;;;;;10517887;28;20555;-64
2022/06/17 11:20:01;;;;;;;5.05;3.72;;;24.00;69.90;;;;;;10515182;28;20048;-65
2022/06/17 11:25:31;;;;;;;7.65;3.78;;;24.10;70.70;;;;;;10519421;28;20048;-60
2022/06/17 11:30:37;;;;;;;4.05;3.42;;;24.10;69.60;;;;;;10509423;28;20548;-60
2022/06/17 11:35:39;;;;;;;8.23;4.32;;;24.00;70.20;;;;;;10505737;28;20044;-59
2022/06/17 11:40:51;;;;;;;5.88;3.80;;;24.10;70.20;;;;;;10508927;28;20025;-60
2022/06/17 11:45:52;;;;;;;7.10;4.10;;;24.30;69.90;;;;;;10505182;28;20029;-59
2022/06/17 11:51:30;;;;;;;5.20;3.97;;;24.40;69.60;;;;;;10506235;28;20021;-65
2022/06/17 11:56:35;;;;;;;7.10;3.90;;;24.50;69.50;;;;;;10491687;28;20040;-60
2022/06/17 12:01:37;;;;;;;207.73;68.30;;;24.70;69.40;;;;;;10502238;28;20767;-59
2022/06/17 12:06:47;;;;;;;389.42;138.77;;;24.90;69.30;;;;;;10505189;28;20032;-62
2022/06/17 12:12:13;;;;;;;42.15;15.43;;;25.20;68.10;;;;;;10509276;28;20036;-60
2022/06/17 12:17:16;;;;;;;11.63;5.60;;;25.40;68.20;;;;;;10511597;28;20485;-59
2022/06/17 12:22:33;;;;;;;8.18;4.80;;;25.50;67.90;;;;;;10506790;28;20031;-59
2022/06/17 12:27:43;;;;;;;11.25;4.47;;;25.50;67.40;;;;;;10506646;28;20040;-61
2022/06/17 12:32:47;;;;;;;45.17;15.75;;;25.40;68.00;;;;;;10514392;28;20027;-63
2022/06/17 12:37:58;;;;;;;7.38;5.13;;;25.50;67.90;;;;;;10506184;28;20110;-60
2022/06/17 12:42:59;;;;;;;7.60;4.10;;;25.70;67.50;;;;;;10510301;28;20032;-59
2022/06/17 12:48:15;;;;;;;8.25;4.60;;;25.80;67.60;;;;;;10506099;28;20167;-72
2022/06/17 12:53:24;;;;;;;5.82;4.05;;;25.90;66.70;;;;;;10511489;28;20206;-63
2022/06/17 12:59:01;;;;;;;8.95;4.80;;;25.90;66.90;;;;;;10510717;28;20068;-62
2022/06/17 13:04:23;;;;;;;7.25;4.50;;;26.00;66.60;;;;;;10505178;28;20461;-59
2022/06/17 13:09:56;;;;;;;5.88;4.00;;;25.90;66.90;;;;;;10500912;28;20031;-63
2022/06/17 13:15:09;;;;;;;5.40;3.50;;;25.80;67.10;;;;;;10503600;28;20041;-60
2022/06/17 13:20:15;;;;;;;5.32;3.78;;;25.60;67.80;;;;;;10500767;28;20024;-60
2022/06/17 13:25:26;;;;;;;4.13;3.57;;;25.30;68.30;;;;;;10502145;28;20561;-57
2022/06/17 13:30:32;;;;;;;5.22;3.72;;;25.30;69.10;;;;;;10511531;28;20032;-62
2022/06/17 13:35:41;;;;;;;4.43;3.38;;;25.20;68.70;;;;;;10503011;28;20036;-60
2022/06/17 13:40:50;;;;;;;5.38;3.00;;;25.20;68.60;;;;;;10504777;28;20238;-56
2022/06/17 13:46:10;;;;;;;5.57;3.22;;;25.10;68.70;;;;;;10508860;28;20023;-58
2022/06/17 13:51:28;;;;;;;4.70;2.90;;;25.30;68.20;;;;;;10514637;28;20032;-60
2022/06/17 13:56:43;;;;;;;6.00;3.25;;;25.70;66.30;;;;;;10519882;28;20392;-58
2022/06/17 14:01:46;;;;;;;3.47;2.88;;;25.90;65.50;;;;;;10522044;28;20031;-58
2022/06/17 14:06:49;;;;;;;4.65;3.08;;;26.10;65.40;;;;;;10522854;28;20107;-61
2022/06/17 14:11:50;;;;;;;3.90;2.95;;;26.30;65.30;;;;;;10520167;28;20131;-62
2022/06/17 14:17:01;;;;;;;5.00;3.78;;;26.40;65.30;;;;;;10514257;28;20122;-57
2022/06/17 14:22:03;;;;;;;3.33;3.03;;;26.50;64.30;;;;;;10517284;28;20118;-65
2022/06/17 14:27:04;;;;;;;4.50;2.67;;;26.70;64.60;;;;;;10512706;28;20058;-56
2022/06/17 14:32:49;;;;;;;3.05;2.60;;;27.00;64.20;;;;;;10517461;28;20545;-64
2022/06/17 14:38:03;;;;;;;3.65;2.95;;;27.20;62.50;;;;;;10485652;28;20519;-64
2022/06/17 14:43:16;;;;;;;5.60;2.63;;;27.40;61.80;;;;;;10508533;28;20492;-61
2022/06/17 14:48:37;;;;;;;8.07;2.70;;;27.60;62.20;;;;;;10512613;28;20032;-59
2022/06/17 14:53:44;;;;;;;3.33;2.50;;;27.70;62.00;;;;;;10508896;28;20032;-62
2022/06/17 14:58:56;;;;;;;;;;;27.80;62.20;;;;;;10512802;28;20032;-62
2022/06/17 15:04:05;;;;;;;3.95;2.58;;;27.80;61.20;;;;;;10514105;28;19908;-62
2022/06/17 15:09:22;;;;;;;5.53;2.92;;;27.80;61.90;;;;;;10508981;28;20111;-61
2022/06/17 15:14:24;;;;;;;3.20;2.60;;;27.90;62.20;;;;;;10511355;28;20052;-62
2022/06/17 15:19:38;;;;;;;3.78;2.30;;;27.80;62.50;;;;;;10506382;28;20040;-60
2022/06/17 15:24:59;;;;;;;3.28;2.38;;;27.70;60.70;;;;;;10513378;28;20020;-66
2022/06/17 15:30:18;;;;;;;4.30;2.38;;;27.50;60.60;;;;;;10509218;28;20040;-63
2022/06/17 15:35:27;;;;;;;4.03;2.83;;;27.50;61.40;;;;;;10508317;28;20028;-57
2022/06/17 15:40:32;;;;;;;3.72;2.65;;;27.40;61.40;;;;;;10511125;28;20028;-62
2022/06/17 15:45:34;;;;;;;3.53;2.50;;;27.30;61.80;;;;;;10511210;28;20267;-59
2022/06/17 15:50:57;;;;;;;4.00;2.33;;;27.30;61.60;;;;;;10511304;28;20032;-59
2022/06/17 15:55:58;;;;;;;3.13;2.40;;;27.40;60.50;;;;;;10511883;28;20036;-61
2022/06/17 16:01:13;;;;;;;2.70;2.50;;;27.40;61.50;;;;;;10507116;28;20035;-59
2022/06/17 16:06:33;;;;;;;2.90;2.20;;;27.40;61.30;;;;;;10507280;28;20037;-63
2022/06/17 16:11:38;;;;;;;5.47;3.63;;;27.30;60.90;;;;;;10504681;28;20098;-61
2022/06/17 16:16:47;;;;;;;6.10;3.28;;;27.20;61.80;;;;;;10507401;28;20076;-64
2022/06/17 16:21:57;;;;;;;5.28;2.97;;;27.10;62.10;;;;;;10510510;28;20069;-59
2022/06/17 16:27:01;;;;;;;3.88;3.08;;;27.00;62.10;;;;;;10501607;28;20029;-61
2022/06/17 16:32:04;;;;;;;3.35;2.53;;;27.00;62.50;;;;;;10504871;28;20016;-60
2022/06/17 16:37:05;;;;;;;6.55;3.05;;;26.90;62.90;;;;;;10505355;28;20036;-60
2022/06/17 16:47:31;;;;;;;8.32;6.25;;;26.70;62.70;;;;;;10505418;28;20053;-60
2022/06/17 16:52:32;;;;;;;11.50;8.75;;;26.70;62.90;;;;;;10503267;28;20084;-68
2022/06/17 16:57:37;;;;;;;6.88;3.50;;;26.60;63.20;;;;;;10506153;28;20763;-60
2022/06/17 17:02:38;;;;;;;5.97;3.50;;;26.60;63.10;;;;;;10507286;28;20039;-67
2022/06/17 17:07:39;;;;;;;4.20;3.70;;;26.50;63.10;;;;;;10512168;28;20059;-62
2022/06/17 17:12:45;;;;;;;4.30;3.35;;;26.50;63.40;;;;;;10515294;28;20039;-64
2022/06/17 17:17:46;;;;;;;2.75;2.42;;;26.50;63.30;;;;;;10503230;28;20511;-61
2022/06/17 17:22:50;;;;;;;6.55;4.68;;;26.40;63.50;;;;;;10508244;28;21433;-61
2022/06/17 17:27:52;;;;;;;4.80;3.55;;;26.30;63.50;;;;;;10513174;28;20488;-61
2022/06/17 17:32:53;;;;;;;7.70;5.78;;;26.30;63.80;;;;;;10510577;28;20058;-69
2022/06/17 17:37:54;;;;;;;9.85;5.22;;;26.20;64.20;;;;;;10512419;28;20040;-60
2022/06/17 17:42:55;;;;;;;27.65;16.50;;;26.20;64.40;;;;;;10523210;28;20059;-66
2022/06/17 17:47:56;;;;;;;20.58;12.02;;;26.00;64.80;;;;;;10523171;28;20115;-69
2022/06/17 17:52:57;;;;;;;12.48;8.02;;;26.00;65.20;;;;;;10514204;28;20028;-60
2022/06/17 17:57:58;;;;;;;11.50;5.80;;;25.90;65.50;;;;;;10511844;28;20094;-61
2022/06/17 18:02:59;;;;;;;10.48;6.20;;;25.80;65.70;;;;;;10509682;28;20024;-60
2022/06/17 18:08:00;;;;;;;6.50;3.50;;;25.80;66.00;;;;;;10512497;28;20024;-68
2022/06/17 18:13:00;;;;;;;5.55;3.40;;;25.70;66.80;;;;;;10511483;28;20033;-71
2022/06/17 18:18:02;;;;;;;4.57;3.28;;;25.60;67.30;;;;;;10512931;28;20052;-61
2022/06/17 18:23:05;;;;;;;5.53;3.83;;;25.60;67.90;;;;;;10512398;28;20487;-68
2022/06/17 18:28:06;;;;;;;7.55;4.18;;;25.50;68.50;;;;;;10515812;28;20042;-65
2022/06/17 18:33:11;;;;;;;4.88;3.75;;;25.50;69.50;;;;;;10515370;28;20497;-63
2022/06/17 18:38:13;;;;;;;7.28;3.70;;;25.50;69.80;;;;;;10518999;28;20032;-59
2022/06/17 18:43:15;;;;;;;5.10;3.38;;;25.40;69.90;;;;;;10519135;28;20020;-70
2022/06/17 18:48:23;;;;;;;6.05;3.30;;;25.30;70.10;;;;;;10520651;28;20062;-67
2022/06/17 18:53:24;;;;;;;3.72;2.92;;;25.30;70.90;;;;;;10517906;28;20032;-63
2022/06/17 18:58:26;;;;;;;7.13;2.92;;;25.20;71.30;;;;;;10520925;28;20627;-60
2022/06/17 19:03:28;;;;;;;3.17;2.60;;;25.20;71.80;;;;;;10521365;28;20060;-66
2022/06/17 19:19:10;;;;;;;3.70;2.78;;;24.90;73.20;;;;;;10424612;28;20044;-64
2022/06/17 19:24:11;;;;;;;2.72;2.22;;;24.80;73.30;;;;;;10416177;28;20301;-62
2022/06/17 19:29:12;;;;;;;3.72;2.70;;;24.70;73.30;;;;;;10427320;28;20577;-66
2022/06/17 19:34:19;;;;;;;3.97;2.72;;;24.70;73.50;;;;;;10420369;28;20055;-62
2022/06/17 19:39:19;;;;;;;3.90;2.65;;;24.60;73.80;;;;;;10424980;28;20507;-62
2022/06/17 19:44:25;;;;;;;5.30;2.90;;;24.50;73.90;;;;;;10412912;28;20028;-65
2022/06/17 19:49:32;;;;;;;6.95;2.80;;;24.40;74.10;;;;;;10419453;28;20570;-64
2022/06/17 19:54:32;;;;;;;6.17;3.00;;;24.20;74.40;;;;;;10414725;28;20038;-68
2022/06/17 19:59:33;;;;;;;3.60;2.42;;;24.20;74.70;;;;;;10410160;28;20590;-62
2022/06/17 20:04:34;;;;;;;5.15;2.67;;;24.10;75.00;;;;;;10415114;28;20028;-63
2022/06/17 20:09:35;;;;;;;4.55;2.75;;;24.00;75.40;;;;;;10421745;28;20225;-62
2022/06/17 20:14:38;;;;;;;5.32;3.03;;;24.00;75.80;;;;;;10407562;28;20606;-62
2022/06/17 20:19:42;;;;;;;6.30;2.72;;;23.90;76.20;;;;;;10457149;28;20028;-58
2022/06/17 20:24:48;;;;;;;4.43;2.50;;;23.90;76.20;;;;;;10502157;28;20035;-58
2022/06/17 20:29:48;;;;;;;2.80;2.10;;;24.00;75.90;;;;;;10509557;28;20115;-64
2022/06/17 20:34:49;;;;;;;6.88;2.85;;;24.00;75.70;;;;;;10503588;28;20087;-61
2022/06/17 20:39:50;;;;;;;3.78;2.60;;;24.00;75.50;;;;;;10501191;28;20029;-58
2022/06/17 20:50:13;;;;;;;4.28;2.22;;;24.10;75.40;;;;;;10491641;28;20036;-59
2022/06/17 20:55:36;;;;;;;3.15;2.50;;;24.10;75.30;;;;;;10501232;28;20040;-62
2022/06/17 21:00:46;;;;;;;2.95;2.40;;;24.10;75.70;;;;;;10497187;28;20100;-60
2022/06/17 21:05:49;;;;;;;5.97;2.53;;;24.00;75.40;;;;;;10504623;28;20024;-64
2022/06/17 21:11:01;;;;;;;3.17;2.80;;;24.00;75.30;;;;;;10497986;28;20036;-62
2022/06/17 21:16:03;;;;;;;2.88;2.45;;;24.00;75.40;;;;;;10495921;28;20117;-64
2022/06/17 21:21:04;;;;;;;2.88;2.40;;;24.00;75.20;;;;;;10502695;28;20059;-63
2022/06/17 21:26:25;;;;;;;3.60;2.50;;;24.00;75.30;;;;;;10511247;28;20113;-58
2022/06/17 21:31:26;;;;;;;3.63;2.30;;;23.90;75.40;;;;;;10491155;28;20032;-58
2022/06/17 21:36:29;;;;;;;3.47;2.30;;;23.90;75.20;;;;;;10502929;28;20040;-58
2022/06/17 21:41:33;;;;;;;4.30;2.17;;;23.90;75.20;;;;;;10499929;28;20031;-58
2022/06/17 21:46:34;;;;;;;2.60;2.08;;;23.90;75.20;;;;;;10497162;28;20028;-57
2022/06/17 21:51:48;;;;;;;3.08;2.40;;;23.80;75.40;;;;;;10502169;28;20021;-63
2022/06/17 21:56:50;;;;;;;4.13;2.40;;;23.70;75.50;;;;;;10503743;28;20082;-58
2022/06/17 22:01:50;;;;;;;4.00;2.15;;;23.70;75.40;;;;;;10506985;28;20843;-62
2022/06/17 22:06:51;;;;;;;2.83;2.28;;;23.70;75.40;;;;;;10503211;28;20044;-63
2022/06/17 22:11:59;;;;;;;2.40;2.20;;;23.60;75.40;;;;;;10509109;28;20056;-57
2022/06/17 22:17:03;;;;;;;3.55;2.15;;;23.60;75.40;;;;;;10512380;28;20039;-61
2022/06/17 22:22:21;;;;;;;3.28;2.05;;;23.60;75.40;;;;;;10506643;28;20090;-61
2022/06/17 22:27:25;;;;;;;;;;;23.60;75.70;;;;;;10508460;28;20077;-56
2022/06/17 22:32:35;;;;;;;2.33;2.08;;;23.50;75.70;;;;;;10503062;28;19913;-60
2022/06/17 22:37:37;;;;;;;3.63;2.70;;;23.50;75.40;;;;;;10504855;28;20146;-59
2022/06/17 22:42:38;;;;;;;2.38;2.17;;;23.50;75.50;;;;;;10508586;28;20082;-62
2022/06/17 22:47:39;;;;;;;2.38;1.90;;;23.40;75.40;;;;;;10510423;28;20070;-63
2022/06/17 22:52:40;;;;;;;4.55;2.20;;;23.40;75.50;;;;;;10504086;28;20086;-57
2022/06/17 22:57:41;;;;;;;4.20;2.25;;;23.30;75.40;;;;;;10512801;28;20037;-60
2022/06/17 23:02:43;;;;;;;2.20;1.98;;;23.30;75.50;;;;;;10504327;28;20092;-61
2022/06/17 23:07:45;;;;;;;5.05;2.22;;;23.30;75.50;;;;;;10509081;28;20119;-56
2022/06/17 23:12:47;;;;;;;2.67;2.30;;;23.30;75.60;;;;;;10511643;28;20543;-60
2022/06/17 23:23:29;;;;;;;2.42;2.22;;;23.20;75.60;;;;;;10510062;28;20501;-57
2022/06/17 23:28:30;;;;;;;3.88;2.55;;;23.20;75.70;;;;;;10507112;28;20076;-60
2022/06/17 23:33:39;;;;;;;3.00;2.28;;;23.10;75.50;;;;;;10507011;28;20036;-60
2022/06/17 23:38:40;;;;;;;2.92;2.08;;;23.10;75.60;;;;;;10509182;28;20047;-59
2022/06/17 23:43:40;;;;;;;3.28;2.50;;;23.10;75.60;;;;;;10509439;28;20024;-57
2022/06/17 23:48:46;;;;;;;2.53;2.30;;;23.10;75.70;;;;;;10504878;28;20572;-56
2022/06/17 23:53:48;;;;;;;3.78;2.70;;;23.00;75.70;;;;;;10504644;28;20050;-61
2022/06/17 23:58:58;;;;;;;2.85;2.50;;;23.00;75.70;;;;;;10501959;28;20036;-61
